Time;durP1;ratioP1;P1;durP2;ratioP2;P2;SDS_P1;SDS_P2;PMS_P1;PMS_P2;Temp;Humidity;BMP_temperature;BMP_pressure;BME280_temperature;BME280_humidity;BME280_pressure;Samples;Min_cycle;Max_cycle;Signal;HPM_P1;HPM_P2
2024/01/18 00:02:18;;;;;;;1.55;1.45;;;;;;;5.73;100.00;94626.00;4992015;28;20497;-77
2024/01/18 00:04:46;;;;;;;1.70;1.40;;;;;;;5.67;100.00;94633.19;4974735;28;20455;-77
2024/01/18 00:07:12;;;;;;;1.33;1.23;;;;;;;5.61;100.00;94626.47;4972503;28;20506;-77
2024/01/18 00:09:38;;;;;;;1.50;1.40;;;;;;;5.52;100.00;94624.78;4974226;28;20831;-77
2024/01/18 00:12:05;;;;;;;1.73;1.63;;;;;;;5.41;100.00;94627.56;4975807;28;20408;-77
2024/01/18 00:14:31;;;;;;;1.50;1.40;;;;;;;5.36;100.00;94625.03;4975354;28;20431;-78
2024/01/18 00:16:58;;;;;;;1.50;1.40;;;;;;;5.30;100.00;94631.41;4975935;28;20408;-77
2024/01/18 00:19:24;;;;;;;1.50;1.40;;;;;;;5.25;100.00;94639.34;4975894;28;20487;-77
2024/01/18 00:21:52;;;;;;;1.52;1.42;;;;;;;5.20;100.00;94642.03;4976776;28;20419;-78
2024/01/18 00:24:18;;;;;;;1.40;1.30;;;;;;;5.17;100.00;94637.38;4975883;28;20893;-77
2024/01/18 00:26:44;;;;;;;1.42;1.33;;;;;;;5.12;100.00;94639.25;4976181;28;20411;-77
2024/01/18 00:29:10;;;;;;;1.40;1.30;;;;;;;5.05;100.00;94640.41;4976007;28;20455;-77
2024/01/18 00:31:36;;;;;;;1.60;1.50;;;;;;;5.00;100.00;94639.69;4976575;28;20408;-77
2024/01/18 00:34:03;;;;;;;1.50;1.40;;;;;;;4.99;100.00;94644.16;4994796;28;20895;-78
2024/01/18 00:36:29;;;;;;;1.63;1.52;;;;;;;4.96;100.00;94649.97;4996452;28;20493;-79
2024/01/18 00:38:57;;;;;;;1.40;1.30;;;;;;;4.91;100.00;94657.91;4998095;28;20409;-79
2024/01/18 00:41:29;;;;;;;1.50;1.40;;;;;;;4.85;100.00;94656.41;4997245;28;20398;-77
2024/01/18 00:43:55;;;;;;;1.50;1.40;;;;;;;4.79;100.00;94652.28;4994717;28;20421;-77
2024/01/18 00:46:22;;;;;;;1.50;1.40;;;;;;;4.75;100.00;94650.50;4994603;28;20406;-77
2024/01/18 00:48:48;;;;;;;1.73;1.40;;;;;;;4.70;100.00;94648.72;4994714;28;20405;-77
2024/01/18 00:51:14;;;;;;;1.60;1.50;;;;;;;4.68;100.00;94645.59;4994578;28;20399;-77
2024/01/18 00:53:41;;;;;;;1.60;1.50;;;;;;;4.67;100.00;94642.19;4995625;28;20472;-77
2024/01/18 00:56:09;;;;;;;1.58;1.48;;;;;;;4.66;100.00;94640.63;4995165;28;20402;-77
2024/01/18 00:58:36;;;;;;;1.48;1.38;;;;;;;4.63;100.00;94645.66;4996129;28;20430;-77
2024/01/18 01:01:02;;;;;;;1.60;1.50;;;;;;;4.56;100.00;94648.63;4995794;28;20505;-77
2024/01/18 01:03:29;;;;;;;1.60;1.50;;;;;;;4.51;100.00;94651.28;4994133;28;20426;-77
2024/01/18 01:05:55;;;;;;;1.67;1.45;;;;;;;4.47;100.00;94654.75;4994489;28;20406;-77
2024/01/18 01:08:21;;;;;;;1.67;1.58;;;;;;;4.46;100.00;94655.81;4994500;28;20405;-77
2024/01/18 01:10:47;;;;;;;1.70;1.50;;;;;;;4.45;100.00;94652.41;4993844;28;20402;-77
2024/01/18 01:13:15;;;;;;;2.10;1.70;;;;;;;4.43;100.00;94662.41;4994141;28;20405;-77
2024/01/18 01:15:41;;;;;;;1.50;1.40;;;;;;;4.40;100.00;94659.56;4995976;28;20394;-79
2024/01/18 01:18:07;;;;;;;2.40;1.65;;;;;;;4.36;100.00;94648.09;4999024;28;20404;-78
2024/01/18 01:20:33;;;;;;;1.50;1.40;;;;;;;4.33;100.00;94656.50;4998020;28;20458;-78
2024/01/18 01:22:59;;;;;;;1.70;1.60;;;;;;;4.34;100.00;94655.44;4999651;28;20438;-78
2024/01/18 01:25:25;;;;;;;1.50;1.40;;;;;;;4.36;100.00;94654.06;4999388;28;20403;-78
2024/01/18 01:27:51;;;;;;;1.60;1.50;;;;;;;4.37;100.00;94654.88;4999192;28;20449;-78
2024/01/18 01:30:19;;;;;;;1.50;1.40;;;;;;;4.39;100.00;94652.75;4998752;28;20493;-78
2024/01/18 01:32:45;;;;;;;1.70;1.60;;;;;;;4.43;100.00;94657.19;4998743;28;20403;-78
2024/01/18 01:35:12;;;;;;;3.97;1.88;;;;;;;4.57;100.00;94657.28;5000812;28;20501;-78
2024/01/18 01:37:38;;;;;;;1.95;1.75;;;;;;;4.71;100.00;94657.38;4997249;28;20763;-78
2024/01/18 01:40:05;;;;;;;1.80;1.70;;;;;;;4.81;100.00;94654.63;4997556;28;20449;-76
2024/01/18 01:42:32;;;;;;;1.80;1.70;;;;;;;4.94;100.00;94653.94;4995978;28;20795;-78
2024/01/18 01:44:58;;;;;;;2.20;1.50;;;;;;;5.00;100.00;94656.22;4995866;28;20403;-79
2024/01/18 01:47:25;;;;;;;1.50;1.40;;;;;;;5.03;100.00;94650.41;4994547;28;20482;-79
2024/01/18 01:49:51;;;;;;;1.58;1.48;;;;;;;5.04;100.00;94645.91;4994852;28;20395;-77
2024/01/18 01:52:18;;;;;;;1.60;1.50;;;;;;;5.04;100.00;94649.31;4995970;28;20394;-78
2024/01/18 01:54:46;;;;;;;1.45;1.35;;;;;;;5.04;100.00;94651.16;4994754;28;20418;-77
2024/01/18 01:57:13;;;;;;;1.40;1.30;;;;;;;5.04;100.00;94649.31;4994712;28;20422;-78
2024/01/18 01:59:40;;;;;;;1.50;1.40;;;;;;;5.06;100.00;94649.06;4994427;28;20407;-78
2024/01/18 02:02:07;;;;;;;1.65;1.50;;;;;;;5.07;100.00;94646.16;4994235;28;20480;-78
2024/01/18 02:04:34;;;;;;;1.40;1.30;;;;;;;5.04;100.00;94659.03;4994570;28;20498;-78
2024/01/18 02:07:01;;;;;;;1.70;1.40;;;;;;;4.96;100.00;94657.06;4993947;28;20402;-78
2024/01/18 02:09:28;;;;;;;1.60;1.50;;;;;;;4.93;100.00;94666.25;4994464;28;20406;-78
2024/01/18 02:11:55;;;;;;;2.58;1.67;;;;;;;4.93;100.00;94658.41;4995008;28;20557;-78
2024/01/18 02:14:22;;;;;;;1.75;1.65;;;;;;;5.05;100.00;94653.50;4994033;28;20433;-78
2024/01/18 02:16:49;;;;;;;1.70;1.60;;;;;;;5.17;100.00;94652.31;4994154;28;20390;-78
2024/01/18 02:19:15;;;;;;;2.10;1.77;;;;;;;5.24;100.00;94658.78;4994599;28;20429;-78
2024/01/18 02:21:42;;;;;;;1.60;1.50;;;;;;;5.35;100.00;94654.16;4994375;28;20836;-78
2024/01/18 02:24:15;;;;;;;1.50;1.40;;;;;;;5.43;100.00;94650.88;4994219;28;20403;-78
2024/01/18 02:26:43;;;;;;;1.50;1.40;;;;;;;5.48;100.00;94657.91;4994770;28;20426;-78
2024/01/18 02:29:09;;;;;;;1.50;1.30;;;;;;;5.52;100.00;94651.03;4994271;28;20398;-78
2024/01/18 02:31:35;;;;;;;1.30;1.20;;;;;;;5.54;100.00;94659.41;4993813;28;20465;-78
2024/01/18 02:34:05;;;;;;;1.48;1.38;;;;;;;5.55;100.00;94653.88;4993646;28;20418;-78
2024/01/18 02:36:31;;;;;;;1.40;1.30;;;;;;;5.55;100.00;94653.88;4994149;28;20402;-78
2024/01/18 02:38:57;;;;;;;2.55;1.50;;;;;;;5.61;100.00;94651.94;4994299;28;20454;-78
2024/01/18 02:41:24;;;;;;;1.50;1.40;;;;;;;5.68;100.00;94660.22;4994880;28;20421;-78
2024/01/18 02:43:51;;;;;;;1.40;1.30;;;;;;;5.73;100.00;94657.50;4994634;28;20398;-78
2024/01/18 02:46:18;;;;;;;1.37;1.27;;;;;;;5.76;100.00;94662.97;4994734;28;20409;-78
2024/01/18 02:48:44;;;;;;;1.55;1.45;;;;;;;5.78;100.00;94665.31;4993949;28;20402;-78
2024/01/18 02:51:10;;;;;;;1.52;1.42;;;;;;;5.78;100.00;94657.44;4993542;28;20443;-78
2024/01/18 02:53:37;;;;;;;1.30;1.20;;;;;;;5.80;100.00;94656.06;4993554;28;20430;-78
2024/01/18 02:56:03;;;;;;;1.33;1.23;;;;;;;5.81;100.00;94664.72;4993967;28;20406;-78
2024/01/18 02:58:29;;;;;;;1.30;1.23;;;;;;;5.79;100.00;94659.75;4994493;28;20526;-78
2024/01/18 03:00:57;;;;;;;1.40;1.30;;;;;;;5.78;100.00;94658.22;4994060;28;20764;-78
2024/01/18 03:03:23;;;;;;;1.42;1.27;;;;;;;5.74;100.00;94653.81;4994089;28;20815;-78
2024/01/18 03:05:49;;;;;;;1.45;1.35;;;;;;;5.70;100.00;94658.09;4994157;28;20907;-78
2024/01/18 03:08:15;;;;;;;3.20;1.50;;;;;;;5.70;100.00;94658.09;4994223;28;20406;-78
2024/01/18 03:10:42;;;;;;;1.40;1.30;;;;;;;5.71;100.00;94657.78;4994172;28;20399;-78
2024/01/18 03:13:08;;;;;;;1.50;1.40;;;;;;;5.72;100.00;94655.94;4994511;28;20418;-78
2024/01/18 03:15:34;;;;;;;1.20;1.20;;;;;;;5.67;100.00;94662.06;4997606;28;20402;-78
2024/01/18 03:18:01;;;;;;;1.40;1.30;;;;;;;5.61;100.00;94665.06;4999234;28;20498;-78
2024/01/18 03:20:27;;;;;;;1.52;1.30;;;;;;;5.54;100.00;94659.41;4998860;28;20433;-78
2024/01/18 03:22:55;;;;;;;1.20;1.20;;;;;;;5.47;100.00;94669.47;4999936;28;20509;-78
2024/01/18 03:25:21;;;;;;;1.27;1.20;;;;;;;5.40;100.00;94668.00;4998624;28;20498;-78
2024/01/18 03:27:47;;;;;;;1.67;1.30;;;;;;;5.34;100.00;94663.84;4998209;28;20509;-78
2024/01/18 03:30:13;;;;;;;1.35;1.25;;;;;;;5.30;100.00;94668.13;4999168;28;20899;-79
2024/01/18 03:32:39;;;;;;;1.40;1.30;;;;;;;5.27;100.00;94660.03;5000329;28;20960;-79
2024/01/18 03:35:08;;;;;;;1.10;1.10;;;;;;;5.24;100.00;94658.78;5000858;28;20442;-79
2024/01/18 03:37:34;;;;;;;1.10;1.10;;;;;;;5.20;100.00;94660.38;4998834;28;20406;-77
2024/01/18 03:40:00;;;;;;;1.33;1.23;;;;;;;5.12;100.00;94657.63;4996318;28;20857;-77
2024/01/18 03:42:27;;;;;;;1.40;1.30;;;;;;;5.05;100.00;94663.22;4996900;28;20468;-77
2024/01/18 03:44:53;;;;;;;1.33;1.23;;;;;;;4.98;100.00;94663.56;4999996;28;20588;-79
2024/01/18 03:47:20;;;;;;;1.43;1.33;;;;;;;4.94;100.00;94673.06;5003667;28;20884;-79
2024/01/18 03:49:46;;;;;;;1.40;1.30;;;;;;;4.90;100.00;94664.19;5001786;28;20403;-79
2024/01/18 03:52:14;;;;;;;1.60;1.50;;;;;;;4.87;100.00;94670.00;4999968;28;20413;-79
2024/01/18 03:54:40;;;;;;;1.50;1.40;;;;;;;4.86;100.00;94678.16;5001005;28;20418;-79
2024/01/18 03:57:06;;;;;;;1.60;1.50;;;;;;;4.84;100.00;94672.41;5000923;28;20413;-79
2024/01/18 03:59:33;;;;;;;1.60;1.50;;;;;;;4.83;100.00;94671.63;5001840;28;20485;-79
2024/01/18 04:01:59;;;;;;;1.40;1.30;;;;;;;4.82;100.00;94664.81;5004297;28;20399;-79
2024/01/18 04:04:25;;;;;;;1.35;1.30;;;;;;;4.81;100.00;94667.75;5003899;28;20413;-79
2024/01/18 04:06:51;;;;;;;1.55;1.45;;;;;;;4.80;100.00;94666.97;5003809;28;20401;-79
2024/01/18 04:09:18;;;;;;;1.50;1.30;;;;;;;4.76;100.00;94668.56;5003508;28;20417;-79
2024/01/18 04:11:45;;;;;;;1.80;1.70;;;;;;;4.77;100.00;94664.09;5002958;28;20398;-79
2024/01/18 04:14:11;;;;;;;2.72;1.80;;;;;;;4.76;100.00;94673.03;5001273;28;20418;-79
2024/01/18 04:16:38;;;;;;;2.42;2.20;;;;;;;4.73;100.00;94679.63;5004362;28;20497;-79
2024/01/18 04:19:04;;;;;;;2.70;2.50;;;;;;;4.70;100.00;94677.56;5002570;28;20505;-79
2024/01/18 04:21:30;;;;;;;3.50;2.92;;;;;;;4.67;100.00;94665.00;5002780;28;20756;-79
2024/01/18 04:23:56;;;;;;;3.78;3.38;;;;;;;4.66;100.00;94671.31;5002874;28;20482;-79
2024/01/18 04:26:25;;;;;;;3.90;3.58;;;;;;;4.63;100.00;94662.19;5003481;28;20409;-79
2024/01/18 04:28:51;;;;;;;5.25;4.40;;;;;;;4.62;100.00;94672.94;5003579;28;20398;-79
2024/01/18 04:31:17;;;;;;;5.00;4.32;;;;;;;4.58;100.00;94664.09;5002139;28;20403;-79
2024/01/18 04:33:44;;;;;;;5.13;4.60;;;;;;;4.54;100.00;94660.44;5001200;28;20430;-79
2024/01/18 04:36:10;;;;;;;6.20;5.40;;;;;;;4.49;100.00;94668.38;5001058;28;20411;-79
2024/01/18 04:38:37;;;;;;;6.35;5.60;;;;;;;4.42;100.00;94662.69;4999947;28;20413;-79
2024/01/18 04:41:05;;;;;;;6.30;5.70;;;;;;;4.34;100.00;94661.47;5000230;28;20437;-79
2024/01/18 04:43:32;;;;;;;7.22;5.70;;;;;;;4.27;100.00;94661.78;4999407;28;20775;-79
2024/01/18 04:45:59;;;;;;;6.90;6.00;;;;;;;4.21;100.00;94672.59;4998988;28;20398;-79
2024/01/18 04:48:25;;;;;;;8.02;6.15;;;;;;;4.16;100.00;94670.78;4999658;28;20406;-79
2024/01/18 04:50:51;;;;;;;8.25;6.28;;;;;;;4.14;100.00;94670.28;4999337;28;20402;-79
2024/01/18 04:53:17;;;;;;;8.15;6.38;;;;;;;4.11;100.00;94668.22;4999376;28;20822;-79
2024/01/18 04:55:44;;;;;;;8.13;6.72;;;;;;;4.11;100.00;94675.31;4999395;28;20406;-79
2024/01/18 04:58:10;;;;;;;7.57;6.22;;;;;;;4.10;100.00;94674.53;4997532;28;20487;-78
2024/01/18 05:00:38;;;;;;;7.82;6.35;;;;;;;4.11;100.00;94675.31;5003518;28;20858;-79
2024/01/18 05:03:04;;;;;;;8.27;6.40;;;;;;;4.12;100.00;94676.88;5009592;28;20410;-78
2024/01/18 05:05:31;;;;;;;8.43;6.50;;;;;;;4.12;100.00;94672.41;5001002;28;20403;-78
2024/01/18 05:07:57;;;;;;;7.50;6.20;;;;;;;4.11;100.00;94673.47;5001689;28;20406;-79
2024/01/18 05:10:24;;;;;;;8.40;6.30;;;;;;;4.10;100.00;94669.28;5005433;28;20752;-79
2024/01/18 05:12:51;;;;;;;8.23;6.47;;;;;;;4.10;100.00;94668.50;5001686;28;20483;-79
2024/01/18 05:15:18;;;;;;;8.07;6.18;;;;;;;4.08;100.00;94665.38;5009967;28;20493;-78
2024/01/18 05:17:50;;;;;;;8.95;6.18;;;;;;;4.07;100.00;94672.44;5004193;28;20414;-79
2024/01/18 05:20:17;;;;;;;9.38;6.53;;;;;;;4.05;100.00;94677.19;5005696;28;20489;-79
2024/01/18 05:22:43;;;;;;;9.15;6.45;;;;;;;4.06;100.00;94678.72;5007726;28;20895;-79
2024/01/18 05:25:09;;;;;;;8.07;6.43;;;;;;;4.06;100.00;94676.09;4999027;28;20449;-79
2024/01/18 05:27:38;;;;;;;9.50;6.88;;;;;;;4.04;100.00;94667.78;4998413;28;20406;-79
2024/01/18 05:30:07;;;;;;;8.63;6.22;;;;;;;4.03;100.00;94665.44;4997368;28;20778;-78
2024/01/18 05:32:33;;;;;;;10.15;6.78;;;;;;;4.03;100.00;94670.66;4997122;28;20468;-78
2024/01/18 05:35:05;;;;;;;8.73;6.20;;;;;;;4.01;100.00;94672.75;4996754;28;20480;-79
2024/01/18 05:37:31;;;;;;;9.45;6.65;;;;;;;4.01;100.00;94672.75;4997048;28;20438;-78
2024/01/18 05:39:57;;;;;;;8.90;6.13;;;;;;;3.98;100.00;94679.34;4996264;28;20411;-77
2024/01/18 05:42:23;;;;;;;10.95;7.00;;;;;;;3.96;100.00;94681.44;4998089;28;20448;-78
2024/01/18 05:44:50;;;;;;;9.50;6.78;;;;;;;3.95;100.00;94685.13;4996584;28;20410;-79
2024/01/18 05:47:16;;;;;;;11.75;7.25;;;;;;;3.95;100.00;94694.81;5001045;28;20410;-78
2024/01/18 05:49:43;;;;;;;9.35;7.10;;;;;;;3.93;100.00;94700.31;5000126;28;20418;-78
2024/01/18 05:52:10;;;;;;;14.85;8.75;;;;;;;3.92;100.00;94698.75;4998317;28;20410;-78
2024/01/18 05:54:36;;;;;;;13.70;8.38;;;;;;;3.91;100.00;94712.13;4986452;28;20478;-77
2024/01/18 05:57:04;;;;;;;19.27;10.90;;;;;;;3.89;100.00;94720.25;4996583;28;20405;-78
2024/01/18 05:59:30;;;;;;;17.90;9.88;;;;;;;3.84;100.00;94715.81;4997044;28;20457;-78
2024/01/18 06:01:57;;;;;;;15.40;9.43;;;;;;;3.81;100.00;94716.38;4996604;28;20434;-78
2024/01/18 06:04:24;;;;;;;14.02;8.95;;;;;;;3.77;100.00;94715.34;4981299;28;20408;-78
2024/01/18 06:06:50;;;;;;;13.00;8.40;;;;;;;3.73;100.00;94719.56;4976029;28;20408;-77
2024/01/18 06:09:18;;;;;;;13.60;8.70;;;;;;;3.69;100.00;94707.28;4977244;28;20478;-78
2024/01/18 06:11:44;;;;;;;11.82;7.70;;;;;;;3.63;100.00;94713.63;4977603;28;20423;-78
2024/01/18 06:14:10;;;;;;;11.25;7.57;;;;;;;3.56;100.00;94713.94;4976846;28;20424;-78
2024/01/18 06:16:36;;;;;;;10.70;7.57;;;;;;;3.49;100.00;94718.69;4977747;28;20416;-78
2024/01/18 06:19:03;;;;;;;10.95;7.60;;;;;;;3.43;100.00;94717.94;4977419;28;20739;-77
2024/01/18 06:21:29;;;;;;;10.90;7.63;;;;;;;3.36;100.00;94719.31;4975254;28;20419;-77
2024/01/18 06:23:55;;;;;;;10.00;6.90;;;;;;;3.29;100.00;94714.38;4974752;28;20412;-78
2024/01/18 06:26:22;;;;;;;9.83;6.60;;;;;;;3.24;100.00;94719.63;4975799;28;20692;-77
2024/01/18 06:28:49;;;;;;;9.20;6.47;;;;;;;3.19;100.00;94722.25;4975414;28;20411;-78
2024/01/18 06:31:15;;;;;;;8.40;6.20;;;;;;;3.14;100.00;94711.84;4973362;28;20408;-76
2024/01/18 06:33:41;;;;;;;7.00;5.63;;;;;;;3.11;100.00;94717.59;4973441;28;20419;-75
2024/01/18 06:36:09;;;;;;;7.18;5.30;;;;;;;3.07;100.00;94709.53;4973192;28;20463;-76
2024/01/18 06:38:35;;;;;;;7.03;5.53;;;;;;;3.06;100.00;94713.19;4973204;28;20960;-76
2024/01/18 06:41:01;;;;;;;7.53;5.50;;;;;;;3.03;100.00;94708.50;4973055;28;20418;-76
2024/01/18 06:43:29;;;;;;;7.25;5.50;;;;;;;3.01;100.00;94710.56;4972852;28;20419;-75
2024/01/18 06:45:55;;;;;;;8.33;5.50;;;;;;;3.01;100.00;94713.19;4972880;28;20400;-76
2024/01/18 06:48:21;;;;;;;7.60;5.13;;;;;;;3.00;100.00;94718.72;4973158;28;20459;-76
2024/01/18 06:50:48;;;;;;;5.95;4.90;;;;;;;2.96;100.00;94718.44;4972870;28;20499;-76
2024/01/18 06:53:14;;;;;;;6.45;5.00;;;;;;;2.94;100.00;94715.31;4973156;28;20489;-76
2024/01/18 06:55:40;;;;;;;6.70;4.95;;;;;;;2.93;100.00;94715.63;4973182;28;20429;-76
2024/01/18 06:58:06;;;;;;;7.13;4.95;;;;;;;2.91;100.00;94702.81;4974812;28;20431;-76
2024/01/18 07:00:34;;;;;;;6.30;4.75;;;;;;;2.90;100.00;94706.47;4974250;28;20400;-76
2024/01/18 07:03:00;;;;;;;5.93;4.80;;;;;;;2.88;100.00;94699.94;4975719;28;20406;-76
2024/01/18 07:05:27;;;;;;;5.50;4.55;;;;;;;2.88;100.00;94702.53;4991939;28;20411;-75
2024/01/18 07:07:53;;;;;;;11.40;5.10;;;;;;;2.86;100.00;94708.03;4992007;28;20390;-75
2024/01/18 07:10:20;;;;;;;6.13;4.70;;;;;;;2.85;100.00;94696.06;4991898;28;20830;-76
2024/01/18 07:12:47;;;;;;;6.32;4.60;;;;;;;2.85;100.00;94705.72;4991755;28;20848;-75
2024/01/18 07:15:13;;;;;;;5.63;4.63;;;;;;;2.84;100.00;94688.47;4991483;28;20414;-76
2024/01/18 07:17:40;;;;;;;5.40;4.60;;;;;;;2.84;100.00;94698.94;4991966;28;20402;-75
2024/01/18 07:20:07;;;;;;;6.85;4.93;;;;;;;2.84;100.00;94689.25;4991971;28;20430;-75
2024/01/18 07:22:34;;;;;;;6.75;5.13;;;;;;;2.84;100.00;94699.72;4992140;28;20405;-76
2024/01/18 07:25:00;;;;;;;6.63;4.73;;;;;;;2.83;100.00;94703.38;4992303;28;20445;-75
2024/01/18 07:27:26;;;;;;;6.50;4.80;;;;;;;2.80;100.00;94696.06;4992190;28;20405;-75
2024/01/18 07:29:52;;;;;;;6.43;4.90;;;;;;;2.77;100.00;94698.44;4992419;28;20406;-77
2024/01/18 07:32:18;;;;;;;7.68;5.10;;;;;;;2.73;100.00;94698.16;4993157;28;20410;-77
2024/01/18 07:34:46;;;;;;;6.70;4.90;;;;;;;2.72;100.00;94697.38;4992993;28;20433;-77
2024/01/18 07:37:13;;;;;;;7.00;4.78;;;;;;;2.73;100.00;94700.78;4993388;28;20410;-77
2024/01/18 07:39:40;;;;;;;7.15;4.80;;;;;;;2.72;100.00;94691.38;4993137;28;20803;-77
2024/01/18 07:42:07;;;;;;;6.70;4.80;;;;;;;2.70;100.00;94689.06;4991942;28;20403;-77
2024/01/18 07:44:33;;;;;;;6.97;5.40;;;;;;;2.68;100.00;94685.94;4992022;28;20411;-77
2024/01/18 07:47:00;;;;;;;7.45;5.07;;;;;;;2.67;100.00;94686.19;4992598;28;20395;-77
2024/01/18 07:49:26;;;;;;;8.80;5.30;;;;;;;2.66;100.00;94684.63;4992052;28;20430;-75
2024/01/18 07:51:54;;;;;;;8.90;5.20;;;;;;;2.65;100.00;94691.66;4991782;28;20767;-77
2024/01/18 07:54:20;;;;;;;7.72;5.30;;;;;;;2.66;100.00;94693.25;4991536;28;20414;-77
2024/01/18 07:56:46;;;;;;;8.32;5.13;;;;;;;2.66;100.00;94690.63;4982169;28;20396;-77
2024/01/18 07:59:12;;;;;;;7.43;5.18;;;;;;;2.65;100.00;94696.88;4985643;28;20417;-76
2024/01/18 08:01:40;;;;;;;8.45;5.50;;;;;;;2.66;100.00;94705.50;4990656;28;20410;-77
2024/01/18 08:04:06;;;;;;;7.90;4.93;;;;;;;2.68;100.00;94704.22;4984849;28;20452;-76
2024/01/18 08:06:32;;;;;;;8.80;5.35;;;;;;;2.69;100.00;94703.16;4988831;28;20402;-79
2024/01/18 08:08:59;;;;;;;9.13;5.47;;;;;;;2.69;100.00;94705.00;4994752;28;20811;-79
2024/01/18 08:11:25;;;;;;;7.80;4.97;;;;;;;2.69;100.00;94708.38;4996981;28;20887;-79
2024/01/18 08:13:52;;;;;;;8.75;5.30;;;;;;;2.67;100.00;94718.31;4998708;28;21022;-80
2024/01/18 08:16:18;;;;;;;8.07;5.38;;;;;;;2.65;100.00;94717.78;4998733;28;20879;-79
2024/01/18 08:18:44;;;;;;;9.05;5.43;;;;;;;2.62;100.00;94723.56;5003030;28;20398;-79
2024/01/18 08:21:10;;;;;;;8.52;5.45;;;;;;;2.59;100.00;94725.91;4999373;28;20439;-78
2024/01/18 08:23:36;;;;;;;10.07;6.00;;;;;;;2.57;100.00;94731.38;4993544;28;20409;-78
2024/01/18 08:26:04;;;;;;;17.23;8.93;;;;;;;2.53;100.00;94732.19;4996472;28;20486;-79
2024/01/18 08:28:32;;;;;;;14.80;7.10;;;;;;;2.47;100.00;94730.66;4994923;28;21285;-79
2024/01/18 08:30:58;;;;;;;12.60;6.95;;;;;;;2.43;100.00;94735.59;4998999;28;20457;-79
2024/01/18 08:33:24;;;;;;;12.68;7.28;;;;;;;2.40;100.00;94743.97;5000652;28;20883;-79
2024/01/18 08:35:50;;;;;;;15.10;7.78;;;;;;;2.34;100.00;94743.19;5000752;28;20422;-79
2024/01/18 08:38:16;;;;;;;12.60;7.38;;;;;;;2.30;100.00;94755.22;5002421;28;20407;-79
2024/01/18 08:40:42;;;;;;;14.57;7.35;;;;;;;2.27;100.00;94749.72;5001899;28;20449;-79
2024/01/18 08:43:10;;;;;;;13.65;7.43;;;;;;;2.25;100.00;94752.63;5001477;28;20410;-79
2024/01/18 08:45:38;;;;;;;12.35;7.35;;;;;;;2.25;100.00;94760.44;5002066;28;20410;-79
2024/01/18 08:48:05;;;;;;;18.95;9.10;;;;;;;2.22;100.00;94763.56;4995105;28;20450;-79
2024/01/18 08:50:31;;;;;;;15.55;8.32;;;;;;;2.19;100.00;94779.75;5007640;28;20397;-79
2024/01/18 08:52:58;;;;;;;18.67;9.80;;;;;;;2.18;100.00;94766.97;5013823;28;20408;-79
2024/01/18 08:55:24;;;;;;;14.98;8.60;;;;;;;2.17;100.00;94781.06;5014885;28;20444;-79
2024/01/18 08:57:50;;;;;;;16.52;9.20;;;;;;;2.15;100.00;94770.88;5022927;28;20397;-79
2024/01/18 09:00:18;;;;;;;16.50;9.25;;;;;;;2.15;100.00;94776.09;5011043;28;20882;-79
2024/01/18 09:02:44;;;;;;;16.45;9.38;;;;;;;2.10;100.00;94786.56;5010492;28;20831;-79
2024/01/18 09:05:11;;;;;;;20.05;10.32;;;;;;;2.03;100.00;94790.47;5010807;28;20504;-79
2024/01/18 09:07:37;;;;;;;24.20;12.40;;;;;;;2.01;100.00;94810.81;5009513;28;20965;-79
2024/01/18 09:10:04;;;;;;;22.98;11.07;;;;;;;1.91;100.00;94812.34;5015572;28;20412;-79
2024/01/18 09:12:30;;;;;;;22.10;11.25;;;;;;;1.81;100.00;94812.31;5004396;28;20406;-79
2024/01/18 09:14:56;;;;;;;22.17;11.02;;;;;;;1.76;100.00;94814.94;5007108;28;20476;-79
2024/01/18 09:17:23;;;;;;;19.45;10.25;;;;;;;1.71;100.00;94814.16;5012138;28;20409;-79
2024/01/18 09:19:50;;;;;;;20.77;9.82;;;;;;;1.69;100.00;94830.06;5008646;28;20429;-79
2024/01/18 09:22:17;;;;;;;21.27;10.15;;;;;;;1.69;100.00;94832.66;5006443;28;20414;-78
2024/01/18 09:24:44;;;;;;;17.73;9.70;;;;;;;1.66;100.00;94830.56;4999452;28;20799;-78
2024/01/18 09:27:11;;;;;;;16.67;8.95;;;;;;;1.68;100.00;94822.47;4993790;28;20408;-78
2024/01/18 09:29:37;;;;;;;16.40;8.02;;;;;;;1.72;100.00;94852.22;4992313;28;20415;-78
2024/01/18 09:32:03;;;;;;;17.50;9.02;;;;;;;1.70;100.00;94855.09;4990514;28;20426;-76
2024/01/18 09:34:31;;;;;;;17.75;8.95;;;;;;;1.65;100.00;94860.31;5004173;28;20418;-78
2024/01/18 09:36:58;;;;;;;13.90;7.78;;;;;;;1.61;100.00;94851.41;4999088;28;20472;-79
2024/01/18 09:39:24;;;;;;;11.98;7.22;;;;;;;1.58;100.00;94851.91;5006277;28;20408;-79
2024/01/18 09:41:51;;;;;;;12.07;6.77;;;;;;;1.62;100.00;94873.06;5000706;28;20873;-79
2024/01/18 09:44:30;;;;;;;11.35;7.10;;;;;;;1.56;100.00;94872.25;5006900;28;20458;-80
2024/01/18 09:46:57;;;;;;;10.75;6.63;;;;;;;1.54;100.00;94875.13;5001280;28;20406;-80
2024/01/18 09:49:24;;;;;;;10.45;6.28;;;;;;;1.50;100.00;94873.28;5005576;28;20455;-80
2024/01/18 09:51:55;;;;;;;12.15;6.75;;;;;;;1.44;100.00;94885.50;5012718;28;20939;-79
2024/01/18 09:54:21;;;;;;;11.68;6.28;;;;;;;1.42;100.00;94897.22;5001454;28;20418;-80
2024/01/18 09:56:51;;;;;;;11.65;6.80;;;;;;;1.38;100.00;94903.97;5001276;28;20911;-80
2024/01/18 09:59:20;;;;;;;11.07;6.73;;;;;;;1.34;100.00;94915.97;5001065;28;20542;-80
2024/01/18 10:01:47;;;;;;;12.02;6.90;;;;;;;1.33;100.00;94907.34;5001305;28;20447;-80
2024/01/18 10:04:17;;;;;;;10.98;6.90;;;;;;;1.33;100.00;94922.19;5000088;28;20421;-80
2024/01/18 10:06:43;;;;;;;11.45;7.03;;;;;;;1.32;100.00;94944.09;4999983;28;20466;-80
2024/01/18 10:09:14;;;;;;;10.33;6.10;;;;;;;1.34;100.00;94968.06;4999715;28;20402;-80
2024/01/18 10:11:41;;;;;;;12.23;6.68;;;;;;;1.31;100.00;94964.16;4998835;28;20402;-79
2024/01/18 10:14:07;;;;;;;11.85;6.95;;;;;;;1.31;100.00;94968.56;4998760;28;20434;-78
2024/01/18 10:16:36;;;;;;;8.40;5.63;;;;;;;1.29;100.00;94974.03;4995548;28;20810;-78
2024/01/18 10:19:05;;;;;;;11.52;6.90;;;;;;;1.30;100.00;94983.41;4990083;28;20405;-80
2024/01/18 10:21:36;;;;;;;12.38;6.90;;;;;;;1.26;100.00;94999.81;5000203;28;21034;-80
2024/01/18 10:24:06;;;;;;;12.30;6.37;;;;;;;1.17;100.00;95005.50;5001313;28;20433;-79
2024/01/18 10:26:33;;;;;;;15.65;6.68;;;;;;;1.08;100.00;94995.78;5000489;28;20460;-80
2024/01/18 10:29:00;;;;;;;13.13;7.05;;;;;;;1.03;100.00;94993.16;4997472;28;20402;-79
2024/01/18 10:31:26;;;;;;;14.20;6.72;;;;;;;0.97;100.00;94994.16;4997184;28;20402;-79
2024/01/18 10:33:52;;;;;;;12.82;6.90;;;;;;;0.96;100.00;95006.38;4996314;28;20693;-78
2024/01/18 10:36:19;;;;;;;13.40;6.38;;;;;;;1.02;100.00;94996.78;4996936;28;20421;-79
2024/01/18 10:38:45;;;;;;;16.05;7.30;;;;;;;1.08;100.00;95008.81;4997285;28;20402;-79
2024/01/18 10:41:17;;;;;;;11.75;6.60;;;;;;;1.05;100.00;95007.47;4996486;28;20399;-78
2024/01/18 10:43:44;;;;;;;9.87;6.30;;;;;;;1.08;100.00;95016.63;4995366;28;20725;-79
2024/01/18 10:46:11;;;;;;;9.37;6.10;;;;;;;1.11;100.00;95014.31;4993962;28;20417;-78
2024/01/18 10:48:37;;;;;;;15.93;8.20;;;;;;;1.21;100.00;95033.63;4996760;28;20398;-79
2024/01/18 10:51:05;;;;;;;14.55;7.63;;;;;;;1.16;100.00;95037.78;4998449;28;20402;-79
2024/01/18 10:53:33;;;;;;;12.40;7.35;;;;;;;1.16;100.00;95035.19;4996547;28;20958;-78
2024/01/18 10:56:01;;;;;;;14.55;8.27;;;;;;;1.21;100.00;95046.66;4997583;28;20429;-78
2024/01/18 10:58:27;;;;;;;14.57;7.60;;;;;;;1.23;100.00;95040.19;4997479;28;20763;-78
2024/01/18 11:00:56;;;;;;;13.50;7.85;;;;;;;1.25;100.00;95051.16;4998893;28;20433;-78
2024/01/18 11:03:23;;;;;;;13.25;7.93;;;;;;;1.24;100.00;95054.00;5000301;28;20887;-78
2024/01/18 11:05:49;;;;;;;16.55;8.45;;;;;;;1.24;100.00;95059.22;4995471;28;20408;-79
2024/01/18 11:08:17;;;;;;;16.60;8.63;;;;;;;1.21;100.00;95057.09;4999522;28;20433;-79
2024/01/18 11:10:47;;;;;;;14.55;8.02;;;;;;;1.19;100.00;95070.38;5000733;28;20398;-78
2024/01/18 11:13:17;;;;;;;17.55;9.30;;;;;;;1.17;100.00;95075.06;5000478;28;20433;-79
2024/01/18 11:15:47;;;;;;;14.03;8.17;;;;;;;1.14;100.00;95091.16;5000258;28;20463;-79
2024/01/18 11:18:15;;;;;;;19.13;10.02;;;;;;;1.11;100.00;95089.88;4999800;28;20438;-79
2024/01/18 11:21:00;;;;;;;16.83;9.43;;;;;;;1.04;100.00;95089.28;4999724;28;20460;-79
2024/01/18 11:23:28;;;;;;;18.17;9.43;;;;;;;0.97;100.00;95103.53;5000041;28;20495;-79
2024/01/18 11:25:54;;;;;;;19.75;9.15;;;;;;;0.90;100.00;95097.75;5000040;28;20457;-79
2024/01/18 11:28:22;;;;;;;18.33;8.90;;;;;;;0.82;100.00;95104.19;4999016;28;20431;-79
2024/01/18 11:30:48;;;;;;;17.83;8.55;;;;;;;0.72;100.00;95120.47;4995466;28;20577;-78